Time;durP1;ratioP1;P1;durP2;ratioP2;P2;SDS_P1;SDS_P2;PMS_P1;PMS_P2;Temp;Humidity;BMP_temperature;BMP_pressure;BME280_temperature;BME280_humidity;BME280_pressure;Samples;Min_cycle;Max_cycle;Signal;HPM_P1;HPM_P2
2023/06/02 00:00:26;;;;;;;16.57;4.20;;;12.40;91.40;;;11.87;61.42;101310.19;5076027;28;20632;-73
2023/06/02 00:02:58;;;;;;;10.37;3.40;;;12.40;91.40;;;11.93;61.77;101306.03;5076243;28;20230;-73
2023/06/02 00:05:31;;;;;;;11.80;3.50;;;12.40;91.80;;;11.79;61.33;101314.63;5075938;28;20558;-73
2023/06/02 00:08:04;;;;;;;12.60;3.40;;;12.30;91.80;;;11.88;61.48;101311.03;5076215;28;20269;-73
2023/06/02 00:10:35;;;;;;;16.07;3.87;;;12.30;91.60;;;11.87;61.33;101312.88;5076179;28;20289;-74
2023/06/02 00:13:09;;;;;;;14.80;3.90;;;12.30;91.40;;;11.84;61.27;101315.03;5076085;28;20291;-74
2023/06/02 00:15:41;;;;;;;11.10;3.27;;;12.30;91.50;;;11.83;61.15;101310.66;5075891;28;20253;-74
2023/06/02 00:18:13;;;;;;;13.30;3.83;;;12.30;91.40;;;11.85;60.72;101306.00;5075939;28;20233;-74
2023/06/02 00:20:46;;;;;;;13.93;3.60;;;12.30;91.40;;;11.84;60.86;101318.56;5075984;28;20198;-74
2023/06/02 00:23:18;;;;;;;13.93;3.80;;;12.30;91.40;;;11.81;61.00;101324.25;5075924;28;20242;-74
2023/06/02 00:25:50;;;;;;;9.60;3.60;;;12.30;91.40;;;11.67;60.72;101320.22;5075897;28;20185;-74
2023/06/02 00:28:23;;;;;;;14.77;3.90;;;12.20;91.30;;;11.72;61.57;101316.25;5075531;28;20654;-74
2023/06/02 00:30:56;;;;;;;14.07;4.20;;;12.20;91.60;;;11.76;61.66;101318.47;5075501;28;20194;-74
2023/06/02 00:33:27;;;;;;;12.30;3.90;;;12.20;91.60;;;11.77;61.04;101312.13;5075927;28;20201;-73
2023/06/02 00:35:59;;;;;;;12.20;3.60;;;12.30;91.40;;;11.83;61.60;101316.00;5076083;28;20281;-73
2023/06/02 00:38:31;;;;;;;11.63;3.47;;;12.30;91.50;;;11.80;61.15;101322.53;5075651;28;20267;-73
2023/06/02 00:41:03;;;;;;;16.03;3.70;;;12.30;91.40;;;11.84;61.50;101318.56;5075653;28;20190;-74
2023/06/02 00:43:37;;;;;;;17.17;3.97;;;12.30;91.60;;;11.83;61.31;101316.00;5075361;28;20284;-74
2023/06/02 00:46:09;;;;;;;14.93;4.20;;;12.30;91.50;;;11.88;60.90;101308.34;5075603;28;20190;-73
2023/06/02 00:48:41;;;;;;;9.53;3.23;;;12.40;91.50;;;11.87;61.47;101312.03;5075447;28;20186;-73
2023/06/02 00:51:13;;;;;;;15.90;3.87;;;12.40;91.60;;;11.93;61.72;101314.09;5074998;28;20635;-74
2023/06/02 00:53:45;;;;;;;13.23;3.77;;;12.40;91.70;;;11.84;61.13;101313.19;5075396;28;20280;-74
2023/06/02 00:56:17;;;;;;;14.47;3.83;;;12.30;91.60;;;11.86;61.43;101307.66;5075097;28;20551;-73
2023/06/02 00:58:51;;;;;;;16.40;4.10;;;12.50;91.70;;;11.87;61.21;101312.88;5074457;28;20701;-74
2023/06/02 01:01:23;;;;;;;10.73;3.60;;;12.40;91.70;;;11.80;61.16;101311.81;5075255;28;20261;-74
2023/06/02 01:03:55;;;;;;;13.97;4.27;;;12.20;91.60;;;11.75;61.62;101313.28;5075183;28;20204;-74
2023/06/02 01:06:36;;;;;;;11.33;3.27;;;12.20;91.70;;;11.75;61.25;101313.28;5074848;28;20541;-74
2023/06/02 01:09:13;;;;;;;13.43;3.40;;;12.20;91.70;;;11.73;61.27;101315.25;5074798;28;20657;-74
2023/06/02 01:11:47;;;;;;;14.07;4.00;;;12.20;91.70;;;11.75;62.17;101318.66;5074936;28;20228;-73
2023/06/02 01:14:21;;;;;;;14.17;3.30;;;12.20;91.90;;;11.76;61.67;101314.94;5075001;28;20186;-73
2023/06/02 01:16:53;;;;;;;11.40;3.37;;;12.20;91.80;;;11.74;61.15;101316.94;5074564;28;20209;-73
2023/06/02 01:19:26;;;;;;;12.53;4.03;;;12.20;91.80;;;11.71;61.10;101323.47;5074777;28;20241;-73
2023/06/02 01:22:03;;;;;;;11.50;4.13;;;12.20;91.60;;;11.70;60.84;101327.09;5075134;28;20221;-71
2023/06/02 01:24:47;;;;;;;19.73;4.17;;;12.20;91.60;;;11.74;60.92;101316.94;5074733;28;20221;-71
2023/06/02 01:27:20;;;;;;;15.10;3.60;;;12.20;91.60;;;11.66;61.84;101323.88;5074704;28;20289;-71
2023/06/02 01:29:54;;;;;;;11.90;3.60;;;12.10;91.90;;;11.67;61.16;101312.19;5074327;28;20281;-72
2023/06/02 01:32:30;;;;;;;10.27;3.47;;;12.10;91.60;;;11.71;61.00;101322.63;5074532;28;20229;-72
2023/06/02 01:35:10;;;;;;;12.30;3.97;;;12.20;91.50;;;11.52;61.60;101327.09;5074506;28;20198;-71
2023/06/02 01:37:54;;;;;;;11.57;3.20;;;11.90;91.70;;;11.50;61.17;101321.06;5074473;28;20196;-71
2023/06/02 01:40:29;;;;;;;13.20;3.73;;;12.00;91.70;;;11.55;61.61;101318.75;5074407;28;20297;-71
2023/06/02 01:43:03;;;;;;;13.53;3.57;;;12.00;91.80;;;11.48;61.42;101320.34;5074357;28;20233;-71
2023/06/02 01:45:37;;;;;;;11.27;3.27;;;12.00;91.60;;;11.57;61.80;101321.28;5074425;28;20205;-72
2023/06/02 01:48:11;;;;;;;11.90;3.77;;;12.00;91.90;;;11.56;62.01;101323.13;5074364;28;20220;-72
2023/06/02 01:50:43;;;;;;;14.93;4.00;;;12.00;91.90;;;11.55;61.82;101324.09;5074309;28;20197;-72
2023/06/02 01:53:15;;;;;;;13.83;4.20;;;12.00;91.80;;;11.56;61.69;101312.41;5074179;28;20329;-72
2023/06/02 01:55:49;;;;;;;9.07;3.27;;;12.00;91.90;;;11.50;62.16;101320.22;5074229;28;20221;-72
2023/06/02 01:58:21;;;;;;;11.20;3.70;;;11.90;91.90;;;11.51;62.04;101321.88;5074112;28;20196;-72
2023/06/02 02:00:54;;;;;;;14.27;3.60;;;12.00;92.10;;;11.47;61.92;101321.34;5073719;28;20673;-72
2023/06/02 02:03:25;;;;;;;14.70;3.93;;;12.00;92.10;;;11.39;61.89;101323.94;5073723;28;20552;-72
2023/06/02 02:05:57;;;;;;;12.67;3.60;;;11.80;92.10;;;11.44;62.40;101324.31;5073696;28;20190;-72
2023/06/02 02:08:29;;;;;;;12.40;4.07;;;11.90;92.30;;;11.43;62.71;101314.63;5073998;28;20280;-71
2023/06/02 02:11:02;;;;;;;11.97;3.33;;;11.90;92.40;;;11.47;62.33;101321.34;5073673;28;20192;-71
2023/06/02 02:13:35;;;;;;;12.27;3.90;;;11.90;92.30;;;11.46;62.21;101314.31;5073914;28;20280;-72
2023/06/02 02:16:07;;;;;;;9.90;3.90;;;12.00;92.80;;;11.41;62.67;101319.25;5073655;28;20240;-72
2023/06/02 02:18:40;;;;;;;13.53;3.87;;;11.90;92.40;;;11.37;63.39;101328.59;5073525;28;20193;-72
2023/06/02 02:21:12;;;;;;;17.53;4.20;;;11.80;92.80;;;11.37;62.97;101325.09;5073510;28;20213;-72
2023/06/02 02:23:44;;;;;;;11.07;3.97;;;11.90;92.70;;;11.34;63.23;101328.06;5073739;28;20200;-72
2023/06/02 02:26:18;;;;;;;17.37;3.73;;;11.80;92.60;;;11.35;62.95;101327.91;5073642;28;20236;-72
2023/06/02 02:28:50;;;;;;;11.93;3.67;;;11.80;92.50;;;11.40;62.65;101325.66;5073406;28;20189;-72
2023/06/02 02:31:22;;;;;;;15.10;3.83;;;11.90;92.60;;;11.33;62.63;101324.56;5073739;28;20707;-72
2023/06/02 02:33:56;;;;;;;15.00;4.00;;;11.80;92.40;;;11.34;63.16;101320.88;5073731;28;20201;-72
2023/06/02 02:36:28;;;;;;;12.97;3.80;;;11.80;92.60;;;11.24;62.91;101325.44;5073636;28;20255;-72
2023/06/02 02:39:00;;;;;;;13.20;4.33;;;11.70;92.50;;;11.31;63.60;101326.53;5073291;28;20619;-72
2023/06/02 02:41:33;;;;;;;18.87;4.07;;;11.80;92.90;;;11.24;63.37;101325.44;5073483;28;20264;-72
2023/06/02 02:44:05;;;;;;;10.70;4.10;;;11.80;92.80;;;11.08;63.92;101325.25;5073516;28;20268;-63
2023/06/02 02:46:37;;;;;;;8.73;3.50;;;11.60;93.00;;;11.13;63.97;101328.31;5073088;28;20190;-71
2023/06/02 02:49:09;;;;;;;12.87;3.93;;;11.60;93.10;;;11.15;64.03;101327.19;5073481;28;20225;-72
2023/06/02 02:51:41;;;;;;;10.40;3.40;;;11.60;93.10;;;11.12;63.79;101329.34;5073439;28;20225;-71
2023/06/02 02:54:13;;;;;;;13.57;4.03;;;11.70;93.00;;;11.18;64.11;101328.72;5073494;28;20186;-71
2023/06/02 02:56:46;;;;;;;11.03;4.10;;;11.60;93.20;;;11.19;63.71;101328.59;5073463;28;20273;-71
2023/06/02 02:59:18;;;;;;;17.03;4.17;;;11.70;93.20;;;11.18;64.24;101320.69;5073362;28;20194;-71
2023/06/02 03:01:51;;;;;;;15.20;3.60;;;11.70;93.40;;;11.12;63.85;101326.66;5073335;28;20312;-72
2023/06/02 03:04:24;;;;;;;10.63;3.50;;;11.60;93.30;;;11.12;64.48;101321.28;5073373;28;20221;-72
2023/06/02 03:06:56;;;;;;;9.87;3.93;;;11.60;93.50;;;11.20;64.51;101324.06;5073362;28;20263;-72
2023/06/02 03:09:28;;;;;;;13.17;3.83;;;11.70;93.50;;;11.13;64.46;101322.97;5073338;28;20190;-72
2023/06/02 03:12:01;;;;;;;11.27;3.93;;;11.60;93.50;;;11.19;64.68;101330.44;5072924;28;20308;-72
2023/06/02 03:14:33;;;;;;;13.67;4.13;;;11.70;93.60;;;11.16;64.68;101323.50;5073252;28;20217;-72
2023/06/02 03:17:05;;;;;;;12.73;3.93;;;11.70;93.50;;;11.20;64.59;101321.38;5072947;28;20263;-72
2023/06/02 03:19:37;;;;;;;17.40;4.67;;;11.70;93.50;;;11.14;64.59;101314.78;5073959;28;20200;-73
2023/06/02 03:22:10;;;;;;;14.67;4.00;;;11.60;93.60;;;11.16;64.64;101326.19;5073093;28;20351;-73
2023/06/02 03:24:42;;;;;;;12.17;4.00;;;11.60;93.70;;;11.16;64.64;101325.38;5076714;28;20701;-73
2023/06/02 03:27:15;;;;;;;12.57;3.90;;;11.60;93.70;;;11.05;65.03;101326.41;5076694;28;20213;-73
2023/06/02 03:29:47;;;;;;;14.03;4.20;;;11.60;93.70;;;11.09;65.19;101319.78;5077456;28;20190;-72
2023/06/02 03:32:19;;;;;;;14.57;4.07;;;11.60;94.10;;;11.11;65.59;101325.81;5077568;28;20335;-72
2023/06/02 03:34:51;;;;;;;12.57;4.20;;;11.60;94.00;;;11.17;65.22;101329.72;5077450;28;20194;-71
2023/06/02 03:37:23;;;;;;;12.23;4.30;;;11.70;94.00;;;11.18;65.36;101323.38;5077359;28;20204;-72
2023/06/02 03:39:55;;;;;;;15.57;3.73;;;11.70;94.10;;;11.11;65.56;101319.59;5077003;28;20216;-72
2023/06/02 03:42:28;;;;;;;14.03;3.93;;;11.60;94.00;;;11.15;65.99;101329.88;5076252;28;20264;-72
2023/06/02 03:45:00;;;;;;;18.23;4.50;;;11.60;94.30;;;11.15;65.82;101329.03;5076640;28;20277;-72
2023/06/02 03:47:32;;;;;;;19.37;4.63;;;11.60;94.30;;;11.14;65.98;101321.97;5076348;28;20712;-72
2023/06/02 03:50:04;;;;;;;10.87;3.67;;;11.60;94.30;;;11.15;65.86;101334.41;5076180;28;20549;-72
2023/06/02 03:52:36;;;;;;;13.87;3.83;;;11.70;94.40;;;11.13;66.06;101329.16;5076483;28;20312;-72
2023/06/02 03:55:07;;;;;;;10.43;3.57;;;11.60;94.40;;;11.16;66.37;101334.22;5076544;28;20284;-72
2023/06/02 03:57:41;;;;;;;15.17;4.77;;;11.70;94.50;;;11.10;66.43;101339.34;5076496;28;20281;-72
2023/06/02 04:00:15;;;;;;;15.03;3.80;;;11.60;94.40;;;11.13;66.33;101339.03;5076329;28;20213;-72
2023/06/02 04:02:47;;;;;;;17.17;4.43;;;11.60;94.60;;;11.18;66.17;101342.13;5076327;28;20229;-72
2023/06/02 04:05:19;;;;;;;15.83;3.83;;;11.70;94.60;;;11.08;66.34;101338.66;5076317;28;20201;-72
2023/06/02 04:07:52;;;;;;;16.13;4.07;;;11.70;94.60;;;11.04;66.48;101350.66;5076291;28;20218;-72
2023/06/02 04:10:25;;;;;;;14.23;4.13;;;11.50;94.90;;;11.02;67.13;101347.31;5076292;28;20186;-72
2023/06/02 04:12:58;;;;;;;15.93;4.57;;;11.60;95.10;;;11.04;67.14;101350.66;5075847;28;20784;-72
2023/06/02 04:15:31;;;;;;;12.63;4.60;;;11.50;95.20;;;11.08;67.75;101357.41;5075919;28;20638;-72
2023/06/02 04:18:04;;;;;;;10.80;4.13;;;11.60;95.40;;;11.03;67.68;101351.66;5075803;28;20232;-72
2023/06/02 04:20:36;;;;;;;18.57;4.60;;;11.50;95.40;;;11.09;67.87;101359.13;5075648;28;20581;-72
2023/06/02 04:23:08;;;;;;;14.57;4.30;;;11.70;95.50;;;11.13;67.97;101357.81;5075665;28;20221;-73
2023/06/02 04:25:42;;;;;;;13.80;4.77;;;11.70;95.50;;;11.12;68.07;101369.53;5075917;28;20197;-73
2023/06/02 04:28:15;;;;;;;14.23;4.47;;;11.60;95.70;;;11.00;68.61;101368.03;5074956;28;20716;-73
2023/06/02 04:30:49;;;;;;;14.93;4.63;;;11.50;95.80;;;11.09;68.56;101372.50;5075589;28;20709;-72
2023/06/02 04:33:21;;;;;;;16.50;4.63;;;11.60;96.00;;;11.13;68.54;101365.84;5075677;28;20263;-72
2023/06/02 04:35:53;;;;;;;14.27;4.53;;;11.70;96.40;;;11.03;68.97;101376.59;5075425;28;20657;-73
2023/06/02 04:38:26;;;;;;;14.50;4.60;;;11.60;96.10;;;11.03;69.27;101375.75;5075392;28;20700;-72
2023/06/02 04:40:57;;;;;;;16.87;4.33;;;11.60;96.40;;;11.08;69.20;101373.50;5075353;28;20780;-72
2023/06/02 04:43:31;;;;;;;15.33;4.30;;;11.60;96.40;;;11.04;69.30;101380.13;5076235;28;20272;-72
2023/06/02 04:46:06;;;;;;;17.97;4.83;;;11.60;96.20;;;11.10;69.00;101379.53;5075309;28;20719;-72
2023/06/02 04:48:40;;;;;;;15.43;4.33;;;11.60;96.30;;;11.09;69.43;101378.72;5075530;28;20276;-73
2023/06/02 04:51:12;;;;;;;25.97;4.63;;;11.60;96.40;;;11.03;69.69;101387.31;5075484;28;20288;-73
2023/06/02 04:53:44;;;;;;;15.70;4.57;;;11.60;96.60;;;11.10;69.99;101379.53;5075475;28;20190;-73
2023/06/02 04:56:17;;;;;;;14.80;5.17;;;11.60;96.80;;;11.02;69.89;101382.97;5075430;28;20213;-73
2023/06/02 04:58:51;;;;;;;20.27;5.13;;;11.60;96.70;;;11.05;70.50;101384.50;5075354;28;20277;-73
2023/06/02 05:01:21;;;;;;;16.37;4.80;;;11.60;96.90;;;11.02;70.37;101387.50;5074868;28;20683;-73
2023/06/02 05:03:54;;;;;;;11.37;4.30;;;11.50;96.90;;;11.05;70.33;101392.56;5075261;28;20202;-73
2023/06/02 05:06:26;;;;;;;18.80;4.90;;;11.60;97.20;;;11.07;70.70;101387.88;5075173;28;20263;-72
2023/06/02 05:08:58;;;;;;;17.13;4.83;;;11.60;97.10;;;10.87;71.06;101387.13;5075950;28;20194;-72
2023/06/02 05:11:30;;;;;;;19.80;5.00;;;11.50;97.60;;;10.99;71.22;101387.78;5075077;28;20226;-73
2023/06/02 05:14:03;;;;;;;15.27;4.43;;;11.50;97.40;;;11.07;70.87;101386.03;5074855;28;20765;-73
2023/06/02 05:16:35;;;;;;;14.00;4.83;;;11.60;97.40;;;11.08;71.08;101387.75;5074557;28;20681;-73
2023/06/02 05:19:08;;;;;;;15.93;5.30;;;11.60;97.50;;;11.06;70.78;101396.94;5074991;28;20193;-73
2023/06/02 05:21:40;;;;;;;15.90;5.20;;;11.70;97.20;;;11.12;70.32;101390.97;5074728;28;20315;-73
2023/06/02 05:24:12;;;;;;;19.33;5.60;;;11.70;97.20;;;11.19;70.37;101392.06;5074829;28;20251;-73
2023/06/02 05:26:44;;;;;;;15.93;5.33;;;11.80;97.40;;;11.20;70.52;101386.53;5074482;28;20243;-73
2023/06/02 05:29:17;;;;;;;19.07;5.03;;;11.70;97.20;;;11.09;70.99;101391.28;5074443;28;20277;-73
2023/06/02 05:31:49;;;;;;;14.27;4.80;;;11.70;97.30;;;11.11;71.17;101381.25;5074625;28;20332;-73
2023/06/02 05:34:20;;;;;;;23.60;5.17;;;11.70;97.60;;;11.13;70.90;101393.50;5074630;28;20200;-72
2023/06/02 05:36:52;;;;;;;23.13;5.50;;;11.70;97.50;;;11.13;71.02;101388.13;5074607;28;20272;-72
2023/06/02 05:39:24;;;;;;;18.07;5.57;;;11.70;97.90;;;11.12;71.16;101396.34;5074570;28;20217;-72
2023/06/02 05:41:56;;;;;;;23.70;5.53;;;11.70;97.70;;;11.16;71.53;101392.38;5074322;28;20308;-72
2023/06/02 05:44:29;;;;;;;18.80;5.67;;;11.70;97.80;;;11.20;71.20;101389.22;5074400;28;20196;-72
2023/06/02 05:47:01;;;;;;;16.23;5.13;;;11.80;97.80;;;11.22;71.34;101396.28;5073926;28;20217;-72
2023/06/02 05:49:33;;;;;;;17.37;5.13;;;11.80;97.80;;;11.30;71.10;101388.34;5074936;28;20190;-72
2023/06/02 05:52:05;;;;;;;18.00;6.33;;;11.90;97.60;;;11.27;71.06;101400.19;5074209;28;20342;-72
2023/06/02 05:54:37;;;;;;;17.93;6.30;;;11.80;97.70;;;11.29;71.15;101389.34;5074238;28;20193;-71
2023/06/02 05:57:09;;;;;;;18.37;5.73;;;11.90;97.70;;;11.32;71.29;101397.94;5074227;28;20338;-72
2023/06/02 05:59:42;;;;;;;16.80;5.63;;;11.90;97.90;;;11.23;71.56;101393.47;5074176;28;20276;-72
2023/06/02 06:02:14;;;;;;;19.53;6.07;;;11.80;97.80;;;11.25;72.04;101386.09;5073950;28;20236;-72
2023/06/02 06:04:46;;;;;;;19.03;5.60;;;11.80;98.10;;;11.24;71.66;101400.50;5074018;28;20197;-72
2023/06/02 06:07:18;;;;;;;18.23;5.97;;;11.80;98.20;;;11.31;71.78;101398.91;5074044;28;20280;-72
2023/06/02 06:09:50;;;;;;;15.73;5.30;;;11.90;98.10;;;11.41;71.94;101401.53;5073984;28;20186;-72
2023/06/02 06:12:22;;;;;;;18.80;5.60;;;12.00;98.20;;;11.38;72.41;101407.19;5073564;28;20222;-72
2023/06/02 06:14:55;;;;;;;17.57;5.90;;;11.90;98.20;;;11.48;71.73;101407.97;5073905;28;20194;-72
2023/06/02 06:17:27;;;;;;;16.37;5.67;;;12.10;98.10;;;11.42;71.81;101408.59;5073427;28;20209;-72
2023/06/02 06:19:58;;;;;;;13.73;5.17;;;12.00;97.90;;;11.48;71.40;101413.34;5073694;28;20286;-72
2023/06/02 06:22:30;;;;;;;20.00;5.80;;;12.00;98.00;;;11.51;71.90;101416.56;5074076;28;20225;-71
2023/06/02 06:25:02;;;;;;;16.43;5.37;;;12.10;98.20;;;11.45;71.72;101413.66;5074289;28;20247;-72
2023/06/02 06:27:34;;;;;;;18.90;5.77;;;12.00;97.90;;;11.48;71.93;101419.56;5074001;28;20639;-72
2023/06/02 06:30:09;;;;;;;15.83;5.53;;;12.10;98.10;;;11.47;72.05;101423.22;5074165;28;20217;-72
2023/06/02 06:32:41;;;;;;;10.73;4.50;;;12.10;98.00;;;11.58;70.80;101420.34;5073963;28;20229;-72
2023/06/02 06:35:14;;;;;;;16.43;6.03;;;12.20;97.90;;;11.63;71.16;101418.06;5073704;28;20220;-73
2023/06/02 06:37:46;;;;;;;16.17;6.07;;;12.20;97.80;;;11.74;71.52;101416.19;5073256;28;20557;-73
2023/06/02 06:40:18;;;;;;;12.57;5.50;;;12.30;97.90;;;11.72;71.19;101423.53;5074086;28;20312;-73
2023/06/02 06:42:50;;;;;;;15.77;6.03;;;12.30;98.10;;;11.63;71.34;101419.91;5073100;28;20328;-73
2023/06/02 06:45:23;;;;;;;13.77;5.77;;;12.20;97.50;;;11.61;71.62;101429.91;5073486;28;20194;-73
2023/06/02 06:47:55;;;;;;;14.23;5.73;;;12.20;97.70;;;11.70;70.64;101431.72;5073180;28;20687;-72
2023/06/02 06:50:27;;;;;;;13.73;5.20;;;12.30;97.60;;;11.80;71.34;101423.63;5073457;28;20204;-72
2023/06/02 06:52:59;;;;;;;17.53;6.23;;;12.40;97.90;;;11.85;71.44;101426.72;5073404;28;20225;-73
2023/06/02 06:55:31;;;;;;;13.23;5.77;;;12.40;97.70;;;11.96;71.33;101429.16;5073144;28;20276;-73
2023/06/02 06:58:03;;;;;;;14.80;5.60;;;12.50;98.20;;;12.00;71.14;101430.56;5074745;28;20276;-72
2023/06/02 07:00:36;;;;;;;14.20;4.80;;;12.50;97.50;;;12.01;70.48;101432.25;5077614;28;20258;-72
2023/06/02 07:03:08;;;;;;;14.90;6.13;;;12.60;97.40;;;12.02;70.76;101429.41;5077420;28;20320;-72
2023/06/02 07:05:40;;;;;;;14.70;6.33;;;12.60;97.40;;;11.99;70.49;101428.84;5077531;28;20193;-72
2023/06/02 07:08:12;;;;;;;15.57;5.70;;;12.60;97.50;;;12.08;70.86;101433.31;5077507;28;20605;-72
2023/06/02 07:10:46;;;;;;;13.10;5.50;;;12.60;97.80;;;12.06;70.83;101427.25;5077389;28;20228;-73
2023/06/02 07:13:19;;;;;;;13.87;5.37;;;12.60;97.50;;;12.17;71.41;101433.25;5077333;28;20627;-73
2023/06/02 07:15:53;;;;;;;15.73;5.60;;;12.80;97.80;;;12.25;71.04;101435.16;5077214;28;20215;-73
2023/06/02 07:18:25;;;;;;;13.27;5.67;;;12.80;97.70;;;12.35;70.34;101432.38;5077292;28;20278;-73
2023/06/02 07:20:57;;;;;;;12.97;5.30;;;12.90;97.60;;;12.32;69.05;101435.38;5077239;28;20272;-73
2023/06/02 07:23:28;;;;;;;13.53;5.27;;;12.90;96.90;;;12.37;69.02;101439.28;5077131;28;20268;-73
2023/06/02 07:26:00;;;;;;;14.33;5.27;;;12.90;96.90;;;12.36;68.20;101436.78;5077134;28;20189;-73
2023/06/02 07:28:33;;;;;;;11.67;4.93;;;13.00;96.30;;;12.37;68.18;101431.22;5077083;28;20560;-72
2023/06/02 07:31:13;;;;;;;15.60;5.27;;;13.00;96.70;;;12.28;68.83;101429.47;5077474;28;20190;-72
2023/06/02 07:33:45;;;;;;;16.57;4.90;;;12.90;96.30;;;12.41;69.29;101437.13;5076662;28;20243;-72
2023/06/02 07:36:17;;;;;;;13.50;4.57;;;12.90;96.70;;;12.49;68.93;101429.16;5076916;28;20269;-72
2023/06/02 07:38:48;;;;;;;13.33;4.83;;;13.00;96.50;;;12.54;69.39;101441.09;5076576;28;20710;-72
2023/06/02 07:41:19;;;;;;;12.33;5.20;;;13.20;96.90;;;12.48;69.11;101431.00;5076741;28;20259;-72
2023/06/02 07:43:51;;;;;;;16.67;5.00;;;13.10;96.60;;;12.55;69.35;101434.75;5076669;28;20206;-72
2023/06/02 07:46:24;;;;;;;14.83;5.00;;;13.20;96.70;;;12.66;69.68;101431.81;5076747;28;20222;-72
2023/06/02 07:48:57;;;;;;;15.13;5.20;;;13.20;96.90;;;12.43;68.27;101441.34;5077188;28;20190;-72
2023/06/02 07:51:30;;;;;;;20.70;5.70;;;13.00;96.40;;;12.47;68.67;101434.66;5076178;28;20273;-72
2023/06/02 07:54:01;;;;;;;10.13;4.70;;;13.00;96.50;;;12.61;68.78;101436.78;5076301;28;20182;-72
2023/06/02 07:56:34;;;;;;;15.67;4.93;;;13.20;96.80;;;12.59;68.27;101438.81;5076535;28;20217;-72
2023/06/02 07:59:04;;;;;;;13.77;5.10;;;13.10;96.40;;;12.63;68.93;101440.19;5076500;28;20194;-72
2023/06/02 08:01:38;;;;;;;13.50;4.60;;;13.20;96.30;;;12.66;68.58;101433.66;5076332;28;20316;-71
2023/06/02 08:04:10;;;;;;;13.90;4.73;;;13.20;96.50;;;12.76;69.42;101444.28;5076369;28;20259;-71
2023/06/02 08:06:41;;;;;;;12.63;4.73;;;13.30;96.70;;;12.81;67.26;101444.69;5076110;28;20598;-71
2023/06/02 08:09:15;;;;;;;15.13;5.00;;;13.40;96.20;;;12.86;67.75;101447.72;5075898;28;20217;-71
2023/06/02 08:11:48;;;;;;;13.93;4.77;;;13.40;95.90;;;12.76;67.09;101442.44;5076225;28;20264;-71
2023/06/02 08:14:20;;;;;;;12.37;5.13;;;13.30;95.60;;;12.67;67.47;101452.28;5076261;28;20228;-71
2023/06/02 08:16:56;;;;;;;12.50;4.67;;;13.30;96.00;;;12.84;67.27;101441.66;5075898;28;20300;-71
2023/06/02 08:19:30;;;;;;;10.47;4.17;;;13.40;96.00;;;12.98;68.20;101451.84;5076142;28;20193;-71
2023/06/02 08:22:03;;;;;;;13.20;4.70;;;13.50;96.10;;;13.00;66.58;101455.19;5075956;28;20232;-71
2023/06/02 08:24:36;;;;;;;10.30;4.20;;;13.60;95.40;;;13.02;67.17;101447.81;5076065;28;20247;-71
2023/06/02 08:27:08;;;;;;;13.97;4.67;;;13.50;95.80;;;13.05;66.93;101447.50;5076009;28;20186;-71
2023/06/02 08:29:40;;;;;;;13.83;4.47;;;13.60;95.70;;;13.11;67.26;101454.97;5075944;28;20232;-72
2023/06/02 08:32:14;;;;;;;11.97;4.13;;;13.60;95.70;;;13.14;67.54;101454.66;5075857;28;20264;-72
2023/06/02 08:34:47;;;;;;;14.17;4.60;;;13.70;95.70;;;13.23;66.77;101453.69;5075579;28;20654;-72
2023/06/02 08:37:20;;;;;;;11.90;4.70;;;13.70;95.70;;;13.26;66.77;101450.66;5075519;28;20631;-72
2023/06/02 08:39:53;;;;;;;12.70;4.50;;;13.80;95.40;;;13.40;66.19;101454.59;5075506;28;20650;-72
2023/06/02 08:42:26;;;;;;;11.73;4.70;;;14.00;95.40;;;13.36;65.76;101456.78;5075594;28;20257;-72
2023/06/02 08:44:59;;;;;;;7.37;3.90;;;13.90;94.90;;;13.47;65.82;101455.66;5075346;28;20714;-72
2023/06/02 08:47:34;;;;;;;13.10;4.40;;;14.00;95.00;;;13.59;65.57;101460.59;5075316;28;20646;-72
2023/06/02 08:50:09;;;;;;;13.00;4.07;;;14.10;94.90;;;13.70;65.69;101462.13;5075621;28;20194;-72
2023/06/02 08:52:47;;;;;;;12.37;4.50;;;14.20;94.90;;;13.82;64.85;101454.59;5075434;28;20304;-72
2023/06/02 08:55:18;;;;;;;12.03;4.77;;;14.40;94.70;;;13.94;65.12;101453.31;5075176;28;20713;-72
2023/06/02 08:57:51;;;;;;;10.23;4.60;;;14.50;94.70;;;14.06;64.64;101451.97;5075442;28;20236;-72
2023/06/02 09:00:23;;;;;;;11.03;4.30;;;14.60;94.50;;;14.14;64.01;101449.28;5075374;28;20281;-72
2023/06/02 09:02:56;;;;;;;14.60;4.40;;;14.70;94.20;;;14.25;63.67;101451.66;5074868;28;20690;-72
2023/06/02 09:05:31;;;;;;;13.67;4.20;;;14.80;94.00;;;14.31;62.87;101456.38;5075205;28;20193;-72
2023/06/02 09:08:15;;;;;;;10.07;4.23;;;14.90;93.50;;;14.28;62.56;101456.69;5075218;28;20216;-72
2023/06/02 09:10:48;;;;;;;14.47;4.30;;;14.90;93.30;;;14.40;62.81;101455.41;5075126;28;20198;-72
2023/06/02 09:13:40;;;;;;;13.77;4.30;;;15.00;93.40;;;14.51;63.07;101451.53;5075061;28;20312;-72
2023/06/02 09:16:12;;;;;;;12.70;4.57;;;15.00;93.40;;;14.72;62.92;101459.97;5074843;28;20213;-72
2023/06/02 09:18:58;;;;;;;13.60;4.27;;;15.20;93.30;;;14.85;61.62;101454.03;5074683;28;20688;-72
2023/06/02 09:21:33;;;;;;;9.00;3.97;;;15.40;92.70;;;15.03;63.94;101457.38;5074000;28;20274;-72
2023/06/02 09:24:06;;;;;;;14.27;4.47;;;15.60;93.90;;;14.85;61.56;101457.56;5074802;28;20566;-72
2023/06/02 09:26:47;;;;;;;14.77;4.70;;;15.40;92.50;;;14.91;61.79;101464.13;5074816;28;20193;-72
2023/06/02 09:29:19;;;;;;;13.30;4.30;;;15.40;92.60;;;14.96;62.52;101472.56;5074762;28;20247;-72
2023/06/02 09:31:54;;;;;;;18.77;4.17;;;15.40;92.90;;;15.00;62.70;101468.53;5074587;28;20639;-72
2023/06/02 09:34:38;;;;;;;11.13;4.13;;;15.50;93.20;;;14.95;61.77;101477.13;5074708;28;20193;-72
2023/06/02 09:37:20;;;;;;;11.83;4.30;;;15.40;92.80;;;15.03;62.61;101462.78;5074252;28;20563;-72
2023/06/02 09:39:53;;;;;;;10.57;3.83;;;15.50;93.30;;;15.08;61.49;101476.56;5074240;28;20636;-72
2023/06/02 09:42:27;;;;;;;9.50;3.90;;;15.60;93.10;;;15.18;61.87;101471.84;5074436;28;20232;-72
2023/06/02 09:45:12;;;;;;;11.23;4.90;;;15.70;92.60;;;15.31;62.60;101476.72;5074347;28;20300;-72
2023/06/02 09:47:44;;;;;;;12.27;3.97;;;15.80;93.30;;;15.34;60.26;101466.41;5074130;28;20764;-72
2023/06/02 09:50:37;;;;;;;13.73;3.80;;;15.80;92.00;;;15.49;59.92;101474.63;5074379;28;20193;-72
2023/06/02 09:53:13;;;;;;;9.70;4.23;;;16.10;92.00;;;15.37;59.93;101473.31;5074213;28;20218;-72
2023/06/02 09:55:47;;;;;;;12.17;4.33;;;15.80;91.60;;;15.48;62.21;101476.50;5074336;28;20194;-72
2023/06/02 09:58:19;;;;;;;11.30;3.77;;;16.00;92.90;;;15.66;59.41;101471.69;5074242;28;20204;-72
2023/06/02 10:00:51;;;;;;;13.73;4.13;;;16.10;91.50;;;15.89;58.65;101470.94;5074216;28;20193;-72
2023/06/02 10:03:23;;;;;;;16.73;4.33;;;16.40;91.10;;;16.24;57.58;101465.78;5074027;28;20240;-72
2023/06/02 10:06:13;;;;;;;14.33;4.00;;;16.80;90.70;;;16.38;58.17;101472.28;5074084;28;20189;-72
2023/06/02 10:08:57;;;;;;;15.57;3.80;;;16.90;90.40;;;16.46;57.99;101469.53;5073741;28;20625;-72
2023/06/02 10:11:46;;;;;;;13.90;4.43;;;16.90;90.60;;;16.52;58.54;101468.78;5073936;28;20249;-72
2023/06/02 10:14:41;;;;;;;11.43;3.50;;;17.00;91.20;;;16.62;55.98;101466.72;5073988;28;20189;-72
2023/06/02 10:17:29;;;;;;;10.77;3.50;;;17.10;88.90;;;16.81;59.17;101461.81;5073473;28;20585;-72
2023/06/02 10:20:25;;;;;;;12.37;3.80;;;17.30;90.80;;;16.89;55.43;101459.03;5073594;28;20643;-72
2023/06/02 10:23:38;;;;;;;12.03;3.77;;;17.50;88.30;;;17.20;56.71;101467.84;5073479;28;20752;-72
2023/06/02 10:26:36;;;;;;;12.53;3.67;;;17.60;90.40;;;17.29;54.36;101453.22;5073508;28;20709;-72
2023/06/02 10:29:09;;;;;;;12.90;3.97;;;17.80;86.90;;;17.34;56.36;101460.75;5073461;28;20232;-72
2023/06/02 10:31:42;;;;;;;12.37;3.70;;;17.80;89.20;;;17.31;54.78;101459.25;5073558;28;20315;-72